Aviation Digital Data Service (ADDS)

Output produced by METARs form (0415 UTC 24 January 2019)
found at http://www.aviationweather.gov/metar/data/
 
METAR text: NWWW 240400Z AUTO 17013KT 9999 FEW056 33/17 Q1010 TEMPO 14015G25KT 4000 SHRA BKN012 SCT020TCU
Conditions at: NWWW (LA TONTOUTA NLLE, WS) observed 0400 UTC 24 January 2019
Temperature: 33.0°C (91°F)
Dewpoint: 17.0°C (63°F) [RH = 39%]
Pressure (altimeter): 29.82 inches Hg (1010.0 mb)
Winds: from the S (170 degrees) at 15 MPH (13 knots; 6.7 m/s)
Visibility: 6 or more miles (10+ km)
Ceiling: at least 12,000 feet AGL
Clouds: few clouds at 5600 feet AGL
Weather: no significant weather observed at this time

METAR text: NWWW 240330Z AUTO 16012KT 9999 BKN060 32/17 Q1010 TEMPO 14015G25KT 4000 SHRA BKN012 SCT020TCU
Conditions at: NWWW (LA TONTOUTA NLLE, WS) observed 0330 UTC 24 January 2019
Temperature: 32.0°C (90°F)
Dewpoint: 17.0°C (63°F) [RH = 41%]
Pressure (altimeter): 29.82 inches Hg (1010.0 mb)
Winds: from the SSE (160 degrees) at 14 MPH (12 knots; 6.2 m/s)
Visibility: 6 or more miles (10+ km)
Ceiling: 6000 feet AGL
Clouds: broken clouds at 6000 feet AGL
Weather: no significant weather observed at this time

METAR text: NWWW 240300Z AUTO 14013KT 110V170 9999 FEW054 33/18 Q1010 TEMPO 14015G25KT 4000 SHRA BKN012 SCT020TCU
Conditions at: NWWW (LA TONTOUTA NLLE, WS) observed 0300 UTC 24 January 2019
Temperature: 33.0°C (91°F)
Dewpoint: 18.0°C (64°F) [RH = 41%]
Pressure (altimeter): 29.82 inches Hg (1010.0 mb)
Winds: from the SE (140 degrees) at 15 MPH (13 knots; 6.7 m/s)
Visibility: 6 or more miles (10+ km)
Ceiling: at least 12,000 feet AGL
Clouds: few clouds at 5400 feet AGL
Weather: no significant weather observed at this time

METAR text: NWWW 240230Z AUTO 14012KT 100V170 9999 SCT060 32/18 Q1010 TEMPO 14015G25KT 4000 SHRA BKN012 SCT020TCU
Conditions at: NWWW (LA TONTOUTA NLLE, WS) observed 0230 UTC 24 January 2019
Temperature: 32.0°C (90°F)
Dewpoint: 18.0°C (64°F) [RH = 43%]
Pressure (altimeter): 29.82 inches Hg (1010.0 mb)
Winds: from the SE (140 degrees) at 14 MPH (12 knots; 6.2 m/s)
Visibility: 6 or more miles (10+ km)
Ceiling: at least 12,000 feet AGL
Clouds: scattered clouds at 6000 feet AGL
Weather: no significant weather observed at this time

METAR text: NWWW 240200Z AUTO 13012KT 9999 SCT054 BKN066 32/18 Q1011 TEMPO 14015G25KT 4000 SHRA BKN012 SCT020TCU
Conditions at: NWWW (LA TONTOUTA NLLE, WS) observed 0200 UTC 24 January 2019
Temperature: 32.0°C (90°F)
Dewpoint: 18.0°C (64°F) [RH = 43%]
Pressure (altimeter): 29.85 inches Hg (1011.0 mb)
Winds: from the SE (130 degrees) at 14 MPH (12 knots; 6.2 m/s)
Visibility: 6 or more miles (10+ km)
Ceiling: 6600 feet AGL
Clouds: scattered clouds at 5400 feet AGL
broken clouds at 6600 feet AGL
Weather: no significant weather observed at this time

METAR text: NWWW 240130Z AUTO 13011KT 110V170 9999 SCT050 BKN064 32/19 Q1011 TEMPO 14015G25KT 4000 SHRA BKN012 SCT020TCU
Conditions at: NWWW (LA TONTOUTA NLLE, WS) observed 0130 UTC 24 January 2019
Temperature: 32.0°C (90°F)
Dewpoint: 19.0°C (66°F) [RH = 46%]
Pressure (altimeter): 29.85 inches Hg (1011.0 mb)
Winds: from the SE (130 degrees) at 13 MPH (11 knots; 5.7 m/s)
Visibility: 6 or more miles (10+ km)
Ceiling: 6400 feet AGL
Clouds: scattered clouds at 5000 feet AGL
broken clouds at 6400 feet AGL
Weather: no significant weather observed at this time

METAR text: NWWW 240100Z AUTO 14011KT 110V190 9999 SCT044 SCT058 32/19 Q1011 TEMPO 14015G25KT 4000 SHRA BKN012 SCT020TCU
Conditions at: NWWW (LA TONTOUTA NLLE, WS) observed 0100 UTC 24 January 2019
Temperature: 32.0°C (90°F)
Dewpoint: 19.0°C (66°F) [RH = 46%]
Pressure (altimeter): 29.85 inches Hg (1011.0 mb)
Winds: from the SE (140 degrees) at 13 MPH (11 knots; 5.7 m/s)
Visibility: 6 or more miles (10+ km)
Ceiling: at least 12,000 feet AGL
Clouds: scattered clouds at 4400 feet AGL
scattered clouds at 5800 feet AGL
Weather: no significant weather observed at this time

METAR text: NWWW 240030Z AUTO 18011KT 9999 BKN044 BKN052 32/20 Q1011 TEMPO 14015G25KT 4000 SHRA BKN012 SCT020TCU
Conditions at: NWWW (LA TONTOUTA NLLE, WS) observed 0030 UTC 24 January 2019
Temperature: 32.0°C (90°F)
Dewpoint: 20.0°C (68°F) [RH = 49%]
Pressure (altimeter): 29.85 inches Hg (1011.0 mb)
Winds: from the S (180 degrees) at 13 MPH (11 knots; 5.7 m/s)
Visibility: 6 or more miles (10+ km)
Ceiling: 4400 feet AGL
Clouds: broken clouds at 4400 feet AGL
broken clouds at 5200 feet AGL
Weather: no significant weather observed at this time

METAR text: NWWW 240000Z AUTO 18010KT 140V220 9999 FEW047 BKN074 32/19 Q1011 TEMPO 14015G25KT 4000 SHRA BKN012 SCT020TCU
Conditions at: NWWW (LA TONTOUTA NLLE, WS) observed 0000 UTC 24 January 2019
Temperature: 32.0°C (90°F)
Dewpoint: 19.0°C (66°F) [RH = 46%]
Pressure (altimeter): 29.85 inches Hg (1011.0 mb)
Winds: from the S (180 degrees) at 12 MPH (10 knots; 5.1 m/s)
Visibility: 6 or more miles (10+ km)
Ceiling: 7400 feet AGL
Clouds: few clouds at 4700 feet AGL
broken clouds at 7400 feet AGL
Weather: no significant weather observed at this time

METAR text: NWWW 232330Z AUTO 20008KT 170V240 9999 BKN052 OVC072 30/19 Q1011 TEMPO 14015G25KT 4000 SHRA BKN012 SCT020TCU
Conditions at: NWWW (LA TONTOUTA NLLE, WS) observed 2330 UTC 23 January 2019
Temperature: 30.0°C (86°F)
Dewpoint: 19.0°C (66°F) [RH = 52%]
Pressure (altimeter): 29.85 inches Hg (1011.0 mb)
Winds: from the SSW (200 degrees) at 9 MPH (8 knots; 4.1 m/s)
Visibility: 6 or more miles (10+ km)
Ceiling: 5200 feet AGL
Clouds: broken clouds at 5200 feet AGL
overcast cloud deck at 7200 feet AGL
Weather: no significant weather observed at this time

METAR text: NWWW 232300Z AUTO 26005KT 190V300 9999 BKN054 32/18 Q1011 BECMG 15015KT
Conditions at: NWWW (LA TONTOUTA NLLE, WS) observed 2300 UTC 23 January 2019
Temperature: 32.0°C (90°F)
Dewpoint: 18.0°C (64°F) [RH = 43%]
Pressure (altimeter): 29.85 inches Hg (1011.0 mb)
Winds: from the W (260 degrees) at 6 MPH (5 knots; 2.6 m/s)
Visibility: 6 or more miles (10+ km)
Ceiling: 5400 feet AGL
Clouds: broken clouds at 5400 feet AGL
Weather: no significant weather observed at this time

METAR text: NWWW 232230Z AUTO VRB04KT CAVOK 31/18 Q1012 BECMG 15015KT
Conditions at: NWWW (LA TONTOUTA NLLE, WS) observed 2230 UTC 23 January 2019
Temperature: 31.0°C (88°F)
Dewpoint: 18.0°C (64°F) [RH = 46%]
Pressure (altimeter): 29.88 inches Hg (1012.0 mb)
Winds: variable direction winds at 5 MPH (4 knots; 2.1 m/s)
Visibility: 6 or more miles (10+ km)
Ceiling: ceiling and visibility are OK
Clouds: unknown
Weather: no significant weather observed at this time

METAR text: NWWW 232200Z AUTO 15005KT 110V200 CAVOK 30/19 Q1012 NOSIG
Conditions at: NWWW (LA TONTOUTA NLLE, WS) observed 2200 UTC 23 January 2019
Temperature: 30.0°C (86°F)
Dewpoint: 19.0°C (66°F) [RH = 52%]
Pressure (altimeter): 29.88 inches Hg (1012.0 mb)
Winds: from the SSE (150 degrees) at 6 MPH (5 knots; 2.6 m/s)
Visibility: 6 or more miles (10+ km)
Ceiling: ceiling and visibility are OK
Clouds: unknown
Weather: no significant weather observed at this time

METAR text: NWWW 232130Z AUTO 15006KT 070V190 CAVOK 28/19 Q1012 NOSIG
Conditions at: NWWW (LA TONTOUTA NLLE, WS) observed 2130 UTC 23 January 2019
Temperature: 28.0°C (82°F)
Dewpoint: 19.0°C (66°F) [RH = 58%]
Pressure (altimeter): 29.88 inches Hg (1012.0 mb)
Winds: from the SSE (150 degrees) at 7 MPH (6 knots; 3.1 m/s)
Visibility: 6 or more miles (10+ km)
Ceiling: ceiling and visibility are OK
Clouds: unknown
Weather: no significant weather observed at this time

METAR text: NWWW 232100Z AUTO 12005KT 060V180 CAVOK 27/19 Q1012 NOSIG
Conditions at: NWWW (LA TONTOUTA NLLE, WS) observed 2100 UTC 23 January 2019
Temperature: 27.0°C (81°F)
Dewpoint: 19.0°C (66°F) [RH = 62%]
Pressure (altimeter): 29.88 inches Hg (1012.0 mb)
Winds: from the ESE (120 degrees) at 6 MPH (5 knots; 2.6 m/s)
Visibility: 6 or more miles (10+ km)
Ceiling: ceiling and visibility are OK
Clouds: unknown
Weather: no significant weather observed at this time

METAR text: NWWW 232030Z AUTO 11006KT 070V150 CAVOK 26/19 Q1012 NOSIG
Conditions at: NWWW (LA TONTOUTA NLLE, WS) observed 2030 UTC 23 January 2019
Temperature: 26.0°C (79°F)
Dewpoint: 19.0°C (66°F) [RH = 65%]
Pressure (altimeter): 29.88 inches Hg (1012.0 mb)
Winds: from the ESE (110 degrees) at 7 MPH (6 knots; 3.1 m/s)
Visibility: 6 or more miles (10+ km)
Ceiling: ceiling and visibility are OK
Clouds: unknown
Weather: no significant weather observed at this time

METAR text: NWWW 232000Z AUTO 11003KT 070V140 9999 FEW060 25/19 Q1012 NOSIG
Conditions at: NWWW (LA TONTOUTA NLLE, WS) observed 2000 UTC 23 January 2019
Temperature: 25.0°C (77°F)
Dewpoint: 19.0°C (66°F) [RH = 69%]
Pressure (altimeter): 29.88 inches Hg (1012.0 mb)
Winds: from the ESE (110 degrees) at 3 MPH (3 knots; 1.5 m/s)
Visibility: 6 or more miles (10+ km)
Ceiling: at least 12,000 feet AGL
Clouds: few clouds at 6000 feet AGL
Weather: no significant weather observed at this time

METAR text: NWWW 231930Z AUTO 02003KT 9999 FEW058 23/19 Q1012 NOSIG
Conditions at: NWWW (LA TONTOUTA NLLE, WS) observed 1930 UTC 23 January 2019
Temperature: 23.0°C (73°F)
Dewpoint: 19.0°C (66°F) [RH = 78%]
Pressure (altimeter): 29.88 inches Hg (1012.0 mb)
Winds: from the NNE (20 degrees) at 3 MPH (3 knots; 1.5 m/s)
Visibility: 6 or more miles (10+ km)
Ceiling: at least 12,000 feet AGL
Clouds: few clouds at 5800 feet AGL
Weather: no significant weather observed at this time

METAR text: NWWW 231900Z AUTO 00000KT CAVOK 22/18 Q1011 NOSIG
Conditions at: NWWW (LA TONTOUTA NLLE, WS) observed 1900 UTC 23 January 2019
Temperature: 22.0°C (72°F)
Dewpoint: 18.0°C (64°F) [RH = 78%]
Pressure (altimeter): 29.85 inches Hg (1011.0 mb)
Winds: calm
Visibility: 6 or more miles (10+ km)
Ceiling: ceiling and visibility are OK
Clouds: unknown
Weather: no significant weather observed at this time

METAR text: NWWW 231830Z AUTO VRB02KT 9999 FEW060 22/18 Q1011 NOSIG
Conditions at: NWWW (LA TONTOUTA NLLE, WS) observed 1830 UTC 23 January 2019
Temperature: 22.0°C (72°F)
Dewpoint: 18.0°C (64°F) [RH = 78%]
Pressure (altimeter): 29.85 inches Hg (1011.0 mb)
Winds: variable direction winds at 2 MPH (2 knots; 1.0 m/s)
Visibility: 6 or more miles (10+ km)
Ceiling: at least 12,000 feet AGL
Clouds: few clouds at 6000 feet AGL
Weather: no significant weather observed at this time

METAR text: NWWW 231800Z AUTO VRB02KT 9999 OVC060 22/18 Q1011 NOSIG
Conditions at: NWWW (LA TONTOUTA NLLE, WS) observed 1800 UTC 23 January 2019
Temperature: 22.0°C (72°F)
Dewpoint: 18.0°C (64°F) [RH = 78%]
Pressure (altimeter): 29.85 inches Hg (1011.0 mb)
Winds: variable direction winds at 2 MPH (2 knots; 1.0 m/s)
Visibility: 6 or more miles (10+ km)
Ceiling: 6000 feet AGL
Clouds: overcast cloud deck at 6000 feet AGL
Weather: no significant weather observed at this time

METAR text: NWWW 231730Z AUTO VRB02KT 9999 BKN058 23/19 Q1010 NOSIG
Conditions at: NWWW (LA TONTOUTA NLLE, WS) observed 1730 UTC 23 January 2019
Temperature: 23.0°C (73°F)
Dewpoint: 19.0°C (66°F) [RH = 78%]
Pressure (altimeter): 29.82 inches Hg (1010.0 mb)
Winds: variable direction winds at 2 MPH (2 knots; 1.0 m/s)
Visibility: 6 or more miles (10+ km)
Ceiling: 5800 feet AGL
Clouds: broken clouds at 5800 feet AGL
Weather: no significant weather observed at this time

METAR text: NWWW 231700Z AUTO VRB02KT CAVOK 22/19 Q1010 NOSIG
Conditions at: NWWW (LA TONTOUTA NLLE, WS) observed 1700 UTC 23 January 2019
Temperature: 22.0°C (72°F)
Dewpoint: 19.0°C (66°F) [RH = 83%]
Pressure (altimeter): 29.82 inches Hg (1010.0 mb)
Winds: variable direction winds at 2 MPH (2 knots; 1.0 m/s)
Visibility: 6 or more miles (10+ km)
Ceiling: ceiling and visibility are OK
Clouds: unknown
Weather: no significant weather observed at this time

METAR text: NWWW 231630Z AUTO 11003KT 9999 SCT060 23/19 Q1010 NOSIG
Conditions at: NWWW (LA TONTOUTA NLLE, WS) observed 1630 UTC 23 January 2019
Temperature: 23.0°C (73°F)
Dewpoint: 19.0°C (66°F) [RH = 78%]
Pressure (altimeter): 29.82 inches Hg (1010.0 mb)
Winds: from the ESE (110 degrees) at 3 MPH (3 knots; 1.5 m/s)
Visibility: 6 or more miles (10+ km)
Ceiling: at least 12,000 feet AGL
Clouds: scattered clouds at 6000 feet AGL
Weather: no significant weather observed at this time

METAR text: NWWW 231600Z AUTO 11005KT 9999 OVC060 23/19 Q1010 NOSIG
Conditions at: NWWW (LA TONTOUTA NLLE, WS) observed 1600 UTC 23 January 2019
Temperature: 23.0°C (73°F)
Dewpoint: 19.0°C (66°F) [RH = 78%]
Pressure (altimeter): 29.82 inches Hg (1010.0 mb)
Winds: from the ESE (110 degrees) at 6 MPH (5 knots; 2.6 m/s)
Visibility: 6 or more miles (10+ km)
Ceiling: 6000 feet AGL
Clouds: overcast cloud deck at 6000 feet AGL
Weather: no significant weather observed at this time

METAR text: NWWW 231530Z AUTO 11005KT 9999 OVC052 23/19 Q1010 NOSIG
Conditions at: NWWW (LA TONTOUTA NLLE, WS) observed 1530 UTC 23 January 2019
Temperature: 23.0°C (73°F)
Dewpoint: 19.0°C (66°F) [RH = 78%]
Pressure (altimeter): 29.82 inches Hg (1010.0 mb)
Winds: from the ESE (110 degrees) at 6 MPH (5 knots; 2.6 m/s)
Visibility: 6 or more miles (10+ km)
Ceiling: 5200 feet AGL
Clouds: overcast cloud deck at 5200 feet AGL
Weather: no significant weather observed at this time

METAR text: NWWW 231500Z AUTO VRB03KT 9999 OVC050 23/19 Q1010 NOSIG
Conditions at: NWWW (LA TONTOUTA NLLE, WS) observed 1500 UTC 23 January 2019
Temperature: 23.0°C (73°F)
Dewpoint: 19.0°C (66°F) [RH = 78%]
Pressure (altimeter): 29.82 inches Hg (1010.0 mb)
Winds: variable direction winds at 3 MPH (3 knots; 1.5 m/s)
Visibility: 6 or more miles (10+ km)
Ceiling: 5000 feet AGL
Clouds: overcast cloud deck at 5000 feet AGL
Weather: no significant weather observed at this time

METAR text: NWWW 231430Z AUTO 13004KT 9999 OVC046 24/19 Q1010 NOSIG
Conditions at: NWWW (LA TONTOUTA NLLE, WS) observed 1430 UTC 23 January 2019
Temperature: 24.0°C (75°F)
Dewpoint: 19.0°C (66°F) [RH = 74%]
Pressure (altimeter): 29.82 inches Hg (1010.0 mb)
Winds: from the SE (130 degrees) at 5 MPH (4 knots; 2.1 m/s)
Visibility: 6 or more miles (10+ km)
Ceiling: 4600 feet AGL
Clouds: overcast cloud deck at 4600 feet AGL
Weather: no significant weather observed at this time

METAR text: NWWW 231400Z AUTO 11004KT 9999 OVC046 24/19 Q1010 NOSIG
Conditions at: NWWW (LA TONTOUTA NLLE, WS) observed 1400 UTC 23 January 2019
Temperature: 24.0°C (75°F)
Dewpoint: 19.0°C (66°F) [RH = 74%]
Pressure (altimeter): 29.82 inches Hg (1010.0 mb)
Winds: from the ESE (110 degrees) at 5 MPH (4 knots; 2.1 m/s)
Visibility: 6 or more miles (10+ km)
Ceiling: 4600 feet AGL
Clouds: overcast cloud deck at 4600 feet AGL
Weather: no significant weather observed at this time

METAR text: NWWW 231330Z AUTO 12004KT 9999 BKN044 24/19 Q1011 NOSIG
Conditions at: NWWW (LA TONTOUTA NLLE, WS) observed 1330 UTC 23 January 2019
Temperature: 24.0°C (75°F)
Dewpoint: 19.0°C (66°F) [RH = 74%]
Pressure (altimeter): 29.85 inches Hg (1011.0 mb)
Winds: from the ESE (120 degrees) at 5 MPH (4 knots; 2.1 m/s)
Visibility: 6 or more miles (10+ km)
Ceiling: 4400 feet AGL
Clouds: broken clouds at 4400 feet AGL
Weather: no significant weather observed at this time

METAR text: NWWW 231300Z AUTO 13005KT 9999 SCT042 SCT052 24/19 Q1011 NOSIG
Conditions at: NWWW (LA TONTOUTA NLLE, WS) observed 1300 UTC 23 January 2019
Temperature: 24.0°C (75°F)
Dewpoint: 19.0°C (66°F) [RH = 74%]
Pressure (altimeter): 29.85 inches Hg (1011.0 mb)
Winds: from the SE (130 degrees) at 6 MPH (5 knots; 2.6 m/s)
Visibility: 6 or more miles (10+ km)
Ceiling: at least 12,000 feet AGL
Clouds: scattered clouds at 4200 feet AGL
scattered clouds at 5200 feet AGL
Weather: no significant weather observed at this time

METAR text: NWWW 231230Z AUTO 10004KT 9999 BKN042 BKN052 24/19 Q1011 NOSIG
Conditions at: NWWW (LA TONTOUTA NLLE, WS) observed 1230 UTC 23 January 2019
Temperature: 24.0°C (75°F)
Dewpoint: 19.0°C (66°F) [RH = 74%]
Pressure (altimeter): 29.85 inches Hg (1011.0 mb)
Winds: from the E (100 degrees) at 5 MPH (4 knots; 2.1 m/s)
Visibility: 6 or more miles (10+ km)
Ceiling: 4200 feet AGL
Clouds: broken clouds at 4200 feet AGL
broken clouds at 5200 feet AGL
Weather: no significant weather observed at this time

METAR text: NWWW 231200Z AUTO 12005KT 9999 SCT050 24/19 Q1011 NOSIG
Conditions at: NWWW (LA TONTOUTA NLLE, WS) observed 1200 UTC 23 January 2019
Temperature: 24.0°C (75°F)
Dewpoint: 19.0°C (66°F) [RH = 74%]
Pressure (altimeter): 29.85 inches Hg (1011.0 mb)
Winds: from the ESE (120 degrees) at 6 MPH (5 knots; 2.6 m/s)
Visibility: 6 or more miles (10+ km)
Ceiling: at least 12,000 feet AGL
Clouds: scattered clouds at 5000 feet AGL
Weather: no significant weather observed at this time

METAR text: NWWW 231130Z AUTO 12006KT 9999 BKN048 OVC054 24/20 Q1011 NOSIG
Conditions at: NWWW (LA TONTOUTA NLLE, WS) observed 1130 UTC 23 January 2019
Temperature: 24.0°C (75°F)
Dewpoint: 20.0°C (68°F) [RH = 78%]
Pressure (altimeter): 29.85 inches Hg (1011.0 mb)
Winds: from the ESE (120 degrees) at 7 MPH (6 knots; 3.1 m/s)
Visibility: 6 or more miles (10+ km)
Ceiling: 4800 feet AGL
Clouds: broken clouds at 4800 feet AGL
overcast cloud deck at 5400 feet AGL
Weather: no significant weather observed at this time

METAR text: NWWW 231100Z AUTO 13005KT 9999 BKN052 25/20 Q1011 NOSIG
Conditions at: NWWW (LA TONTOUTA NLLE, WS) observed 1100 UTC 23 January 2019
Temperature: 25.0°C (77°F)
Dewpoint: 20.0°C (68°F) [RH = 74%]
Pressure (altimeter): 29.85 inches Hg (1011.0 mb)
Winds: from the SE (130 degrees) at 6 MPH (5 knots; 2.6 m/s)
Visibility: 6 or more miles (10+ km)
Ceiling: 5200 feet AGL
Clouds: broken clouds at 5200 feet AGL
Weather: no significant weather observed at this time

METAR text: NWWW 231030Z AUTO 12006KT 9999 FEW041 25/20 Q1011 NOSIG
Conditions at: NWWW (LA TONTOUTA NLLE, WS) observed 1030 UTC 23 January 2019
Temperature: 25.0°C (77°F)
Dewpoint: 20.0°C (68°F) [RH = 74%]
Pressure (altimeter): 29.85 inches Hg (1011.0 mb)
Winds: from the ESE (120 degrees) at 7 MPH (6 knots; 3.1 m/s)
Visibility: 6 or more miles (10+ km)
Ceiling: at least 12,000 feet AGL
Clouds: few clouds at 4100 feet AGL
Weather: no significant weather observed at this time

METAR text: NWWW 231000Z AUTO 13006KT 9999 BKN041 OVC048 25/20 Q1011 NOSIG
Conditions at: NWWW (LA TONTOUTA NLLE, WS) observed 1000 UTC 23 January 2019
Temperature: 25.0°C (77°F)
Dewpoint: 20.0°C (68°F) [RH = 74%]
Pressure (altimeter): 29.85 inches Hg (1011.0 mb)
Winds: from the SE (130 degrees) at 7 MPH (6 knots; 3.1 m/s)
Visibility: 6 or more miles (10+ km)
Ceiling: 4100 feet AGL
Clouds: broken clouds at 4100 feet AGL
overcast cloud deck at 4800 feet AGL
Weather: no significant weather observed at this time

METAR text: NWWW 230930Z AUTO 12009KT 9999 OVC040 26/21 Q1011 NOSIG
Conditions at: NWWW (LA TONTOUTA NLLE, WS) observed 0930 UTC 23 January 2019
Temperature: 26.0°C (79°F)
Dewpoint: 21.0°C (70°F) [RH = 74%]
Pressure (altimeter): 29.85 inches Hg (1011.0 mb)
Winds: from the ESE (120 degrees) at 10 MPH (9 knots; 4.6 m/s)
Visibility: 6 or more miles (10+ km)
Ceiling: 4000 feet AGL
Clouds: overcast cloud deck at 4000 feet AGL
Weather: no significant weather observed at this time

METAR text: NWWW 230900Z AUTO 13009KT 9999 FEW041 SCT048 BKN060 26/21 Q1010 NOSIG
Conditions at: NWWW (LA TONTOUTA NLLE, WS) observed 0900 UTC 23 January 2019
Temperature: 26.0°C (79°F)
Dewpoint: 21.0°C (70°F) [RH = 74%]
Pressure (altimeter): 29.82 inches Hg (1010.0 mb)
Winds: from the SE (130 degrees) at 10 MPH (9 knots; 4.6 m/s)
Visibility: 6 or more miles (10+ km)
Ceiling: 6000 feet AGL
Clouds: few clouds at 4100 feet AGL
scattered clouds at 4800 feet AGL
broken clouds at 6000 feet AGL
Weather: no significant weather observed at this time

METAR text: NWWW 230830Z AUTO 12011KT 9999 FEW049 BKN058 26/21 Q1010 NOSIG
Conditions at: NWWW (LA TONTOUTA NLLE, WS) observed 0830 UTC 23 January 2019
Temperature: 26.0°C (79°F)
Dewpoint: 21.0°C (70°F) [RH = 74%]
Pressure (altimeter): 29.82 inches Hg (1010.0 mb)
Winds: from the ESE (120 degrees) at 13 MPH (11 knots; 5.7 m/s)
Visibility: 6 or more miles (10+ km)
Ceiling: 5800 feet AGL
Clouds: few clouds at 4900 feet AGL
broken clouds at 5800 feet AGL
Weather: no significant weather observed at this time

METAR text: NWWW 230800Z AUTO 12011KT 090V150 9999 BKN056 26/21 Q1009 NOSIG
Conditions at: NWWW (LA TONTOUTA NLLE, WS) observed 0800 UTC 23 January 2019
Temperature: 26.0°C (79°F)
Dewpoint: 21.0°C (70°F) [RH = 74%]
Pressure (altimeter): 29.79 inches Hg (1009.0 mb)
Winds: from the ESE (120 degrees) at 13 MPH (11 knots; 5.7 m/s)
Visibility: 6 or more miles (10+ km)
Ceiling: 5600 feet AGL
Clouds: broken clouds at 5600 feet AGL
Weather: no significant weather observed at this time

METAR text: NWWW 230730Z AUTO 12015KT 9999 BKN056 27/21 Q1009 BECMG VRB02KT
Conditions at: NWWW (LA TONTOUTA NLLE, WS) observed 0730 UTC 23 January 2019
Temperature: 27.0°C (81°F)
Dewpoint: 21.0°C (70°F) [RH = 70%]
Pressure (altimeter): 29.79 inches Hg (1009.0 mb)
Winds: from the ESE (120 degrees) at 17 MPH (15 knots; 7.7 m/s)
Visibility: 6 or more miles (10+ km)
Ceiling: 5600 feet AGL
Clouds: broken clouds at 5600 feet AGL
Weather: no significant weather observed at this time

METAR text: NWWW 230700Z AUTO 13014KT 9999 BKN060 28/21 Q1009 BECMG VRB02KT
Conditions at: NWWW (LA TONTOUTA NLLE, WS) observed 0700 UTC 23 January 2019
Temperature: 28.0°C (82°F)
Dewpoint: 21.0°C (70°F) [RH = 66%]
Pressure (altimeter): 29.79 inches Hg (1009.0 mb)
Winds: from the SE (130 degrees) at 16 MPH (14 knots; 7.2 m/s)
Visibility: 6 or more miles (10+ km)
Ceiling: 6000 feet AGL
Clouds: broken clouds at 6000 feet AGL
Weather: no significant weather observed at this time

METAR text: NWWW 230630Z AUTO 14014KT 100V160 9999 FEW058 30/20 Q1009 BECMG VRB02KT
Conditions at: NWWW (LA TONTOUTA NLLE, WS) observed 0630 UTC 23 January 2019
Temperature: 30.0°C (86°F)
Dewpoint: 20.0°C (68°F) [RH = 55%]
Pressure (altimeter): 29.79 inches Hg (1009.0 mb)
Winds: from the SE (140 degrees) at 16 MPH (14 knots; 7.2 m/s)
Visibility: 6 or more miles (10+ km)
Ceiling: at least 12,000 feet AGL
Clouds: few clouds at 5800 feet AGL
Weather: no significant weather observed at this time

METAR text: NWWW 230600Z AUTO 13014KT CAVOK 30/20 Q1008 BECMG VRB02KT
Conditions at: NWWW (LA TONTOUTA NLLE, WS) observed 0600 UTC 23 January 2019
Temperature: 30.0°C (86°F)
Dewpoint: 20.0°C (68°F) [RH = 55%]
Pressure (altimeter): 29.76 inches Hg (1008.0 mb)
Winds: from the SE (130 degrees) at 16 MPH (14 knots; 7.2 m/s)
Visibility: 6 or more miles (10+ km)
Ceiling: ceiling and visibility are OK
Clouds: unknown
Weather: no significant weather observed at this time

METAR text: NWWW 230530Z AUTO 13013KT CAVOK 31/20 Q1008 BECMG VRB02KT
Conditions at: NWWW (LA TONTOUTA NLLE, WS) observed 0530 UTC 23 January 2019
Temperature: 31.0°C (88°F)
Dewpoint: 20.0°C (68°F) [RH = 52%]
Pressure (altimeter): 29.76 inches Hg (1008.0 mb)
Winds: from the SE (130 degrees) at 15 MPH (13 knots; 6.7 m/s)
Visibility: 6 or more miles (10+ km)
Ceiling: ceiling and visibility are OK
Clouds: unknown
Weather: no significant weather observed at this time

METAR text: NWWW 230500Z AUTO 15013KT CAVOK 32/21 Q1008 NOSIG
Conditions at: NWWW (LA TONTOUTA NLLE, WS) observed 0500 UTC 23 January 2019
Temperature: 32.0°C (90°F)
Dewpoint: 21.0°C (70°F) [RH = 52%]
Pressure (altimeter): 29.76 inches Hg (1008.0 mb)
Winds: from the SSE (150 degrees) at 15 MPH (13 knots; 6.7 m/s)
Visibility: 6 or more miles (10+ km)
Ceiling: ceiling and visibility are OK
Clouds: unknown
Weather: no significant weather observed at this time

METAR text: NWWW 230430Z AUTO 15014KT 110V170 9999 FEW046 33/21 Q1008 NOSIG
Conditions at: NWWW (LA TONTOUTA NLLE, WS) observed 0430 UTC 23 January 2019
Temperature: 33.0°C (91°F)
Dewpoint: 21.0°C (70°F) [RH = 49%]
Pressure (altimeter): 29.76 inches Hg (1008.0 mb)
Winds: from the SSE (150 degrees) at 16 MPH (14 knots; 7.2 m/s)
Visibility: 6 or more miles (10+ km)
Ceiling: at least 12,000 feet AGL
Clouds: few clouds at 4600 feet AGL
Weather: no significant weather observed at this time

METAR text: NWWW 230400Z AUTO 13010KT 100V170 9999 BKN045 BKN060 33/21 Q1009 NOSIG
Conditions at: NWWW (LA TONTOUTA NLLE, WS) observed 0400 UTC 23 January 2019
Temperature: 33.0°C (91°F)
Dewpoint: 21.0°C (70°F) [RH = 49%]
Pressure (altimeter): 29.79 inches Hg (1009.0 mb)
Winds: from the SE (130 degrees) at 12 MPH (10 knots; 5.1 m/s)
Visibility: 6 or more miles (10+ km)
Ceiling: 4500 feet AGL
Clouds: broken clouds at 4500 feet AGL
broken clouds at 6000 feet AGL
Weather: no significant weather observed at this time

METAR text: NWWW 230330Z AUTO 21010KT 190V250 9999 BKN045 BKN066 31/21 Q1009 NOSIG
Conditions at: NWWW (LA TONTOUTA NLLE, WS) observed 0330 UTC 23 January 2019
Temperature: 31.0°C (88°F)
Dewpoint: 21.0°C (70°F) [RH = 55%]
Pressure (altimeter): 29.79 inches Hg (1009.0 mb)
Winds: from the SSW (210 degrees) at 12 MPH (10 knots; 5.1 m/s)
Visibility: 6 or more miles (10+ km)
Ceiling: 4500 feet AGL
Clouds: broken clouds at 4500 feet AGL
broken clouds at 6600 feet AGL
Weather: no significant weather observed at this time

METAR text: NWWW 230300Z AUTO 22008KT 170V260 9999 BKN044 BKN052 32/21 Q1009 TEMPO 15020G30KT
Conditions at: NWWW (LA TONTOUTA NLLE, WS) observed 0300 UTC 23 January 2019
Temperature: 32.0°C (90°F)
Dewpoint: 21.0°C (70°F) [RH = 52%]
Pressure (altimeter): 29.79 inches Hg (1009.0 mb)
Winds: from the SW (220 degrees) at 9 MPH (8 knots; 4.1 m/s)
Visibility: 6 or more miles (10+ km)
Ceiling: 4400 feet AGL
Clouds: broken clouds at 4400 feet AGL
broken clouds at 5200 feet AGL
Weather: no significant weather observed at this time

METAR text: NWWW 230230Z AUTO 21009KT 180V250 9999 BKN050 BKN068 33/21 Q1009 TEMPO 15020G30KT
Conditions at: NWWW (LA TONTOUTA NLLE, WS) observed 0230 UTC 23 January 2019
Temperature: 33.0°C (91°F)
Dewpoint: 21.0°C (70°F) [RH = 49%]
Pressure (altimeter): 29.79 inches Hg (1009.0 mb)
Winds: from the SSW (210 degrees) at 10 MPH (9 knots; 4.6 m/s)
Visibility: 6 or more miles (10+ km)
Ceiling: 5000 feet AGL
Clouds: broken clouds at 5000 feet AGL
broken clouds at 6800 feet AGL
Weather: no significant weather observed at this time

METAR text: NWWW 230200Z AUTO 20008KT 160V240 9999 SCT048 BKN060 BKN070 31/21 Q1010 TEMPO 15020G30KT
Conditions at: NWWW (LA TONTOUTA NLLE, WS) observed 0200 UTC 23 January 2019
Temperature: 31.0°C (88°F)
Dewpoint: 21.0°C (70°F) [RH = 55%]
Pressure (altimeter): 29.82 inches Hg (1010.0 mb)
Winds: from the SSW (200 degrees) at 9 MPH (8 knots; 4.1 m/s)
Visibility: 6 or more miles (10+ km)
Ceiling: 6000 feet AGL
Clouds: scattered clouds at 4800 feet AGL
broken clouds at 6000 feet AGL
broken clouds at 7000 feet AGL
Weather: no significant weather observed at this time

METAR text: NWWW 230130Z AUTO 21008KT 160V250 9999 BKN056 32/21 Q1010 TEMPO 15020G30KT
Conditions at: NWWW (LA TONTOUTA NLLE, WS) observed 0130 UTC 23 January 2019
Temperature: 32.0°C (90°F)
Dewpoint: 21.0°C (70°F) [RH = 52%]
Pressure (altimeter): 29.82 inches Hg (1010.0 mb)
Winds: from the SSW (210 degrees) at 9 MPH (8 knots; 4.1 m/s)
Visibility: 6 or more miles (10+ km)
Ceiling: 5600 feet AGL
Clouds: broken clouds at 5600 feet AGL
Weather: no significant weather observed at this time

METAR text: NWWW 230100Z AUTO 19010KT 160V230 9999 FEW043 SCT058 33/21 Q1010 TEMPO 15020G30KT
Conditions at: NWWW (LA TONTOUTA NLLE, WS) observed 0100 UTC 23 January 2019
Temperature: 33.0°C (91°F)
Dewpoint: 21.0°C (70°F) [RH = 49%]
Pressure (altimeter): 29.82 inches Hg (1010.0 mb)
Winds: from the S (190 degrees) at 12 MPH (10 knots; 5.1 m/s)
Visibility: 6 or more miles (10+ km)
Ceiling: at least 12,000 feet AGL
Clouds: few clouds at 4300 feet AGL
scattered clouds at 5800 feet AGL
Weather: no significant weather observed at this time

METAR text: NWWW 230030Z AUTO 25009KT 210V280 9999 BKN060 33/20 Q1010 TEMPO 15020G30KT
Conditions at: NWWW (LA TONTOUTA NLLE, WS) observed 0030 UTC 23 January 2019
Temperature: 33.0°C (91°F)
Dewpoint: 20.0°C (68°F) [RH = 46%]
Pressure (altimeter): 29.82 inches Hg (1010.0 mb)
Winds: from the WSW (250 degrees) at 10 MPH (9 knots; 4.6 m/s)
Visibility: 6 or more miles (10+ km)
Ceiling: 6000 feet AGL
Clouds: broken clouds at 6000 feet AGL
Weather: no significant weather observed at this time

METAR text: NWWW 230000Z AUTO 23007KT 130V270 CAVOK 31/18 Q1011 TEMPO 15020G30KT
Conditions at: NWWW (LA TONTOUTA NLLE, WS) observed 0000 UTC 23 January 2019
Temperature: 31.0°C (88°F)
Dewpoint: 18.0°C (64°F) [RH = 46%]
Pressure (altimeter): 29.85 inches Hg (1011.0 mb)
Winds: from the SW (230 degrees) at 8 MPH (7 knots; 3.6 m/s)
Visibility: 6 or more miles (10+ km)
Ceiling: ceiling and visibility are OK
Clouds: unknown
Weather: no significant weather observed at this time

METAR text: NWWW 222330Z AUTO 23009KT 200V260 9999 FEW058 31/18 Q1011 TEMPO 15020G30KT
Conditions at: NWWW (LA TONTOUTA NLLE, WS) observed 2330 UTC 22 January 2019
Temperature: 31.0°C (88°F)
Dewpoint: 18.0°C (64°F) [RH = 46%]
Pressure (altimeter): 29.85 inches Hg (1011.0 mb)
Winds: from the SW (230 degrees) at 10 MPH (9 knots; 4.6 m/s)
Visibility: 6 or more miles (10+ km)
Ceiling: at least 12,000 feet AGL
Clouds: few clouds at 5800 feet AGL
Weather: no significant weather observed at this time

METAR text: NWWW 222300Z AUTO 26008KT 210V300 9999 FEW054 31/17 Q1011 BECMG 15020KT
Conditions at: NWWW (LA TONTOUTA NLLE, WS) observed 2300 UTC 22 January 2019
Temperature: 31.0°C (88°F)
Dewpoint: 17.0°C (63°F) [RH = 43%]
Pressure (altimeter): 29.85 inches Hg (1011.0 mb)
Winds: from the W (260 degrees) at 9 MPH (8 knots; 4.1 m/s)
Visibility: 6 or more miles (10+ km)
Ceiling: at least 12,000 feet AGL
Clouds: few clouds at 5400 feet AGL
Weather: no significant weather observed at this time

METAR text: NWWW 222230Z AUTO VRB03KT 9999 BKN052 30/16 Q1012 BECMG 15020KT
Conditions at: NWWW (LA TONTOUTA NLLE, WS) observed 2230 UTC 22 January 2019
Temperature: 30.0°C (86°F)
Dewpoint: 16.0°C (61°F) [RH = 43%]
Pressure (altimeter): 29.88 inches Hg (1012.0 mb)
Winds: variable direction winds at 3 MPH (3 knots; 1.5 m/s)
Visibility: 6 or more miles (10+ km)
Ceiling: 5200 feet AGL
Clouds: broken clouds at 5200 feet AGL
Weather: no significant weather observed at this time

METAR text: NWWW 222200Z AUTO VRB04KT CAVOK 29/16 Q1012 BECMG 15020KT
Conditions at: NWWW (LA TONTOUTA NLLE, WS) observed 2200 UTC 22 January 2019
Temperature: 29.0°C (84°F)
Dewpoint: 16.0°C (61°F) [RH = 45%]
Pressure (altimeter): 29.88 inches Hg (1012.0 mb)
Winds: variable direction winds at 5 MPH (4 knots; 2.1 m/s)
Visibility: 6 or more miles (10+ km)
Ceiling: ceiling and visibility are OK
Clouds: unknown
Weather: no significant weather observed at this time

METAR text: NWWW 222130Z AUTO VRB02KT CAVOK 28/17 Q1012 BECMG 15020KT
Conditions at: NWWW (LA TONTOUTA NLLE, WS) observed 2130 UTC 22 January 2019
Temperature: 28.0°C (82°F)
Dewpoint: 17.0°C (63°F) [RH = 51%]
Pressure (altimeter): 29.88 inches Hg (1012.0 mb)
Winds: variable direction winds at 2 MPH (2 knots; 1.0 m/s)
Visibility: 6 or more miles (10+ km)
Ceiling: ceiling and visibility are OK
Clouds: unknown
Weather: no significant weather observed at this time

METAR text: NWWW 222100Z AUTO 13003KT 060V180 CAVOK 27/17 Q1012 BECMG 15020KT
Conditions at: NWWW (LA TONTOUTA NLLE, WS) observed 2100 UTC 22 January 2019
Temperature: 27.0°C (81°F)
Dewpoint: 17.0°C (63°F) [RH = 54%]
Pressure (altimeter): 29.88 inches Hg (1012.0 mb)
Winds: from the SE (130 degrees) at 3 MPH (3 knots; 1.5 m/s)
Visibility: 6 or more miles (10+ km)
Ceiling: ceiling and visibility are OK
Clouds: unknown
Weather: no significant weather observed at this time

METAR text: NWWW 222030Z AUTO VRB02KT CAVOK 25/18 Q1012 BECMG 15020KT
Conditions at: NWWW (LA TONTOUTA NLLE, WS) observed 2030 UTC 22 January 2019
Temperature: 25.0°C (77°F)
Dewpoint: 18.0°C (64°F) [RH = 65%]
Pressure (altimeter): 29.88 inches Hg (1012.0 mb)
Winds: variable direction winds at 2 MPH (2 knots; 1.0 m/s)
Visibility: 6 or more miles (10+ km)
Ceiling: ceiling and visibility are OK
Clouds: unknown
Weather: no significant weather observed at this time

METAR text: NWWW 222000Z AUTO 36004KT CAVOK 23/18 Q1012 BECMG 15020KT
Conditions at: NWWW (LA TONTOUTA NLLE, WS) observed 2000 UTC 22 January 2019
Temperature: 23.0°C (73°F)
Dewpoint: 18.0°C (64°F) [RH = 73%]
Pressure (altimeter): 29.88 inches Hg (1012.0 mb)
Winds: from the N (360 degrees) at 5 MPH (4 knots; 2.1 m/s)
Visibility: 6 or more miles (10+ km)
Ceiling: ceiling and visibility are OK
Clouds: unknown
Weather: no significant weather observed at this time

METAR text: NWWW 221930Z AUTO 03003KT CAVOK 21/17 Q1012 BECMG 15020KT
Conditions at: NWWW (LA TONTOUTA NLLE, WS) observed 1930 UTC 22 January 2019
Temperature: 21.0°C (70°F)
Dewpoint: 17.0°C (63°F) [RH = 78%]
Pressure (altimeter): 29.88 inches Hg (1012.0 mb)
Winds: from the NNE (30 degrees) at 3 MPH (3 knots; 1.5 m/s)
Visibility: 6 or more miles (10+ km)
Ceiling: ceiling and visibility are OK
Clouds: unknown
Weather: no significant weather observed at this time

METAR text: NWWW 221900Z AUTO 00000KT CAVOK 20/17 Q1012 BECMG 11010KT
Conditions at: NWWW (LA TONTOUTA NLLE, WS) observed 1900 UTC 22 January 2019
Temperature: 20.0°C (68°F)
Dewpoint: 17.0°C (63°F) [RH = 83%]
Pressure (altimeter): 29.88 inches Hg (1012.0 mb)
Winds: calm
Visibility: 6 or more miles (10+ km)
Ceiling: ceiling and visibility are OK
Clouds: unknown
Weather: no significant weather observed at this time

METAR text: NWWW 221830Z AUTO VRB02KT CAVOK 20/17 Q1011 NOSIG
Conditions at: NWWW (LA TONTOUTA NLLE, WS) observed 1830 UTC 22 January 2019
Temperature: 20.0°C (68°F)
Dewpoint: 17.0°C (63°F) [RH = 83%]
Pressure (altimeter): 29.85 inches Hg (1011.0 mb)
Winds: variable direction winds at 2 MPH (2 knots; 1.0 m/s)
Visibility: 6 or more miles (10+ km)
Ceiling: ceiling and visibility are OK
Clouds: unknown
Weather: no significant weather observed at this time

METAR text: NWWW 221800Z AUTO VRB02KT CAVOK 21/17 Q1011 NOSIG
Conditions at: NWWW (LA TONTOUTA NLLE, WS) observed 1800 UTC 22 January 2019
Temperature: 21.0°C (70°F)
Dewpoint: 17.0°C (63°F) [RH = 78%]
Pressure (altimeter): 29.85 inches Hg (1011.0 mb)
Winds: variable direction winds at 2 MPH (2 knots; 1.0 m/s)
Visibility: 6 or more miles (10+ km)
Ceiling: ceiling and visibility are OK
Clouds: unknown
Weather: no significant weather observed at this time

METAR text: NWWW 221730Z AUTO 00000KT CAVOK 20/17 Q1011 BECMG 11010KT
Conditions at: NWWW (LA TONTOUTA NLLE, WS) observed 1730 UTC 22 January 2019
Temperature: 20.0°C (68°F)
Dewpoint: 17.0°C (63°F) [RH = 83%]
Pressure (altimeter): 29.85 inches Hg (1011.0 mb)
Winds: calm
Visibility: 6 or more miles (10+ km)
Ceiling: ceiling and visibility are OK
Clouds: unknown
Weather: no significant weather observed at this time

METAR text: NWWW 221700Z AUTO 00000KT CAVOK 21/17 Q1011 BECMG 11010KT
Conditions at: NWWW (LA TONTOUTA NLLE, WS) observed 1700 UTC 22 January 2019
Temperature: 21.0°C (70°F)
Dewpoint: 17.0°C (63°F) [RH = 78%]
Pressure (altimeter): 29.85 inches Hg (1011.0 mb)
Winds: calm
Visibility: 6 or more miles (10+ km)
Ceiling: ceiling and visibility are OK
Clouds: unknown
Weather: no significant weather observed at this time

METAR text: NWWW 221630Z AUTO 03003KT CAVOK 21/17 Q1011 BECMG 11010KT
Conditions at: NWWW (LA TONTOUTA NLLE, WS) observed 1630 UTC 22 January 2019
Temperature: 21.0°C (70°F)
Dewpoint: 17.0°C (63°F) [RH = 78%]
Pressure (altimeter): 29.85 inches Hg (1011.0 mb)
Winds: from the NNE (30 degrees) at 3 MPH (3 knots; 1.5 m/s)
Visibility: 6 or more miles (10+ km)
Ceiling: ceiling and visibility are OK
Clouds: unknown
Weather: no significant weather observed at this time

Forecast for: NWWW (LA TONTOUTA NLLE, WS)
Text: TAF NWWW 232300Z 2400/2424 15015KT 9999 SCT030 SCT050
Forecast period: 0000 UTC 24 January 2019 to 0000 UTC 25 January 2019
Forecast type: FROM: standard forecast or significant change
Winds: from the SSE (150 degrees) at 17 MPH (15 knots; 7.7 m/s)
Visibility: 6 or more miles 10+ km)
Ceiling: at least 12,000 feet AGL
Clouds: scattered clouds at 3000 feet AGL
scattered clouds at 5000 feet AGL
Weather: no significant weather forecast for this period
Text: PROB30
Forecast period: 0100 to 0800 UTC 24 January 2019
Forecast type: TEMPORARY: The following changes expected for less than half the time period
Winds: from the SE (140 degrees) at 17 MPH (15 knots; 7.7 m/s)
gusting to 29 MPH (25 knots; 12.9 m/s)
Visibility: 2.49 miles (4.01 km)
Ceiling: 1200 feet AGL
Clouds: broken clouds at 1200 feet AGL
scattered clouds at 2000 feet AGL
Weather: SHRA  (rain showers)